Time;durP1;ratioP1;P1;durP2;ratioP2;P2;SDS_P1;SDS_P2;PMS_P1;PMS_P2;Temp;Humidity;BMP_temperature;BMP_pressure;BME280_temperature;BME280_humidity;BME280_pressure;Samples;Min_cycle;Max_cycle;Signal;HPM_P1;HPM_P2
2022/06/10 00:01:03;;;;;;;;;20.33;20.33;25.30;60.50;;;;;;5097455;28;8803;-76
2022/06/10 00:03:29;;;;;;;;;19.33;19.33;25.30;60.90;;;;;;5097968;28;8756;-77
2022/06/10 00:05:58;;;;;;;;;16.33;16.33;25.30;61.10;;;;;;5097511;28;8864;-77
2022/06/10 00:08:28;;;;;;;;;17.00;17.00;25.30;61.20;;;;;;5097685;28;8795;-77
2022/06/10 00:10:55;;;;;;;;;21.00;21.00;25.20;61.10;;;;;;5097405;28;8959;-76
2022/06/10 00:13:24;;;;;;;;;16.67;16.67;24.60;63.50;;;;;;5097370;28;8783;-77
2022/06/10 00:15:53;;;;;;;;;16.67;16.67;24.80;63.70;;;;;;5079324;28;8803;-77
2022/06/10 00:18:19;;;;;;;;;20.00;20.00;25.00;62.60;;;;;;5079285;28;9482;-77
2022/06/10 00:20:46;;;;;;;;;18.00;18.00;24.90;62.60;;;;;;5097080;28;8803;-77
2022/06/10 00:23:12;;;;;;;;;20.33;20.33;24.60;63.90;;;;;;5097267;28;8744;-77
2022/06/10 00:25:38;;;;;;;;;17.00;17.00;24.50;65.20;;;;;;5097383;28;8768;-76
2022/06/10 00:28:05;;;;;;;;;23.00;23.00;24.50;65.00;;;;;;5079645;28;8834;-76
2022/06/10 00:30:31;;;;;;;;;19.67;19.67;24.50;65.30;;;;;;5097019;28;8760;-76
2022/06/10 00:32:58;;;;;;;;;16.00;15.00;24.80;64.50;;;;;;5096932;28;8771;-77
2022/06/10 00:35:25;;;;;;;;;18.00;18.00;25.00;63.60;;;;;;5097275;28;8775;-77
2022/06/10 00:37:50;;;;;;;;;19.00;19.00;25.20;62.80;;;;;;5097148;28;8752;-77
2022/06/10 00:40:24;;;;;;;;;18.67;18.67;25.00;63.20;;;;;;5096712;28;8776;-77
2022/06/10 00:42:50;;;;;;;;;23.67;23.67;24.60;64.70;;;;;;5096885;28;8853;-77
2022/06/10 00:45:54;;;;;;;;;24.33;24.33;24.50;65.10;;;;;;5096770;28;8780;-77
2022/06/10 00:48:43;;;;;;;;;21.67;21.67;24.90;64.30;;;;;;5096957;28;8807;-77
2022/06/10 00:51:36;;;;;;;;;23.67;23.67;25.10;63.70;;;;;;5096444;28;8748;-77
2022/06/10 00:54:30;;;;;;;;;22.00;22.00;25.20;62.90;;;;;;5096454;28;8794;-77
2022/06/10 00:57:06;;;;;;;;;21.67;21.67;25.40;62.50;;;;;;5096561;28;8767;-77
2022/06/10 00:59:41;;;;;;;;;20.67;20.67;25.50;61.80;;;;;;5096477;28;8814;-77
2022/06/10 01:02:11;;;;;;;;;23.33;23.33;25.40;62.30;;;;;;5096804;28;8752;-77
2022/06/10 01:04:40;;;;;;;;;17.67;17.67;25.30;62.10;;;;;;5096352;28;8774;-77
2022/06/10 01:07:07;;;;;;;;;22.33;22.33;25.40;62.00;;;;;;5096391;28;8768;-77
2022/06/10 01:09:34;;;;;;;;;18.67;18.67;25.40;62.10;;;;;;5096498;28;8763;-77
2022/06/10 01:12:30;;;;;;;;;23.33;23.33;25.50;61.80;;;;;;5096249;28;8760;-77
2022/06/10 01:14:59;;;;;;;;;22.33;22.33;25.50;61.60;;;;;;5096329;28;8756;-77
2022/06/10 01:17:43;;;;;;;;;23.67;23.67;25.50;61.60;;;;;;5095970;28;8850;-77
2022/06/10 01:20:23;;;;;;;;;20.00;20.00;25.50;61.90;;;;;;5095961;28;8807;-76
2022/06/10 01:23:40;;;;;;;;;21.00;21.00;25.50;61.50;;;;;;5096072;28;8776;-77
2022/06/10 01:26:24;;;;;;;;;20.00;20.00;25.50;61.80;;;;;;5096231;28;8778;-77
2022/06/10 01:29:11;;;;;;;;;22.33;22.33;25.70;61.30;;;;;;5096248;28;8772;-76
2022/06/10 01:31:57;;;;;;;;;24.00;24.00;25.70;61.00;;;;;;5095860;28;8783;-76
2022/06/10 01:34:46;;;;;;;;;27.67;27.67;25.70;61.10;;;;;;5096128;28;8768;-76
2022/06/10 01:37:34;;;;;;;;;23.67;23.67;25.70;60.60;;;;;;5095846;28;8791;-77
2022/06/10 01:40:18;;;;;;;;;22.33;22.33;25.80;60.50;;;;;;5092493;28;8858;-76
2022/06/10 01:42:48;;;;;;;;;22.00;22.00;25.50;61.50;;;;;;5084740;28;8771;-77
2022/06/10 01:45:39;;;;;;;;;22.00;22.00;25.50;61.40;;;;;;5081142;28;8774;-76
2022/06/10 01:48:09;;;;;;;;;23.00;23.00;25.70;61.20;;;;;;5075576;28;8870;-77
2022/06/10 01:51:02;;;;;;;;;24.33;24.33;25.70;60.90;;;;;;5075538;28;9525;-76
2022/06/10 01:53:43;;;;;;;;;26.67;26.67;25.80;60.60;;;;;;5075361;28;8876;-76
2022/06/10 01:56:16;;;;;;;;;21.67;21.67;25.80;60.30;;;;;;5075564;28;9484;-76
2022/06/10 01:58:54;;;;;;;;;22.00;22.00;25.70;60.30;;;;;;5075537;28;8769;-77
2022/06/10 02:01:26;;;;;;;;;20.33;20.33;25.80;60.70;;;;;;5075317;28;8778;-76
2022/06/10 02:03:59;;;;;;;;;23.33;23.33;25.90;60.50;;;;;;5074923;28;8770;-76
2022/06/10 02:06:32;;;;;;;;;23.33;23.33;25.80;60.20;;;;;;5057515;28;8924;-76
2022/06/10 02:09:06;;;;;;;;;22.00;22.00;25.40;61.70;;;;;;5075331;28;8872;-76
2022/06/10 02:11:35;;;;;;;;;22.00;22.00;25.50;61.60;;;;;;5075066;28;8769;-76
2022/06/10 02:14:11;;;;;;;;;21.67;21.67;25.70;61.20;;;;;;5074883;28;8762;-76
2022/06/10 02:16:46;;;;;;;;;23.67;23.67;25.70;60.90;;;;;;5075173;28;8805;-76
2022/06/10 02:19:15;;;;;;;;;23.00;23.00;25.80;60.50;;;;;;5074942;28;8770;-76
2022/06/10 02:21:53;;;;;;;;;27.00;27.00;25.90;60.50;;;;;;5074849;28;8801;-76
2022/06/10 02:24:34;;;;;;;;;20.67;20.67;25.90;60.50;;;;;;5075186;28;9449;-76
2022/06/10 02:27:05;;;;;;;;;22.00;22.00;25.90;60.20;;;;;;5074901;28;8824;-76
2022/06/10 02:29:49;;;;;;;;;22.33;22.33;26.00;60.00;;;;;;5057134;28;8800;-76
2022/06/10 02:32:15;;;;;;;;;22.00;22.00;26.00;59.90;;;;;;5074676;28;8786;-76
2022/06/10 02:34:41;;;;;;;;;23.33;23.33;26.00;59.60;;;;;;5074762;28;8766;-76
2022/06/10 02:37:22;;;;;;;;;27.33;27.33;25.90;59.50;;;;;;5074651;28;8760;-76
2022/06/10 02:40:21;;;;;;;;;26.00;26.00;26.00;59.70;;;;;;5075152;28;9460;-76
2022/06/10 02:43:19;;;;;;;;;23.00;23.00;26.00;59.60;;;;;;5088738;28;8782;-76
2022/06/10 02:46:08;;;;;;;;;24.67;24.67;26.00;59.40;;;;;;5090370;28;8803;-76
2022/06/10 02:48:42;;;;;;;;;22.33;22.33;25.90;60.00;;;;;;5094531;28;8791;-76
2022/06/10 02:51:08;;;;;;;;;26.33;26.33;25.90;60.00;;;;;;5094924;28;8772;-77
2022/06/10 02:53:34;;;;;;;;;20.67;20.33;25.90;60.10;;;;;;5094795;28;8774;-77
2022/06/10 02:56:00;;;;;;;;;26.67;26.67;25.90;60.20;;;;;;5094753;28;8744;-77
2022/06/10 03:01:30;;;;;;;;;24.33;24.33;26.00;59.80;;;;;;5093873;28;8803;-76
2022/06/10 03:04:13;;;;;;;;;27.33;26.67;26.10;59.80;;;;;;5082743;28;8954;-76
2022/06/10 03:07:02;;;;;;;;;24.67;24.67;26.10;59.60;;;;;;5089217;28;8900;-76
2022/06/10 03:10:01;;;;;;;;;27.00;27.00;26.20;59.40;;;;;;5082156;28;8788;-78
2022/06/10 03:12:42;;;;;;;;;26.33;26.33;26.10;59.20;;;;;;5094691;28;8748;-79
2022/06/10 03:15:18;;;;;;;;;27.33;27.33;25.90;60.10;;;;;;5095222;28;8791;-79
2022/06/10 03:18:00;;;;;;;;;22.67;22.67;26.00;60.00;;;;;;5098365;28;8916;-78
2022/06/10 03:20:42;;;;;;;;;23.00;23.00;26.00;58.90;;;;;;5098510;28;8799;-78
2022/06/10 03:23:34;;;;;;;;;27.67;27.67;26.00;58.60;;;;;;5098592;28;8744;-75
2022/06/10 03:26:07;;;;;;;;;26.67;26.67;25.90;59.30;;;;;;5098556;28;8837;-75
2022/06/10 03:29:00;;;;;;;;;23.33;23.33;25.80;59.50;;;;;;5098670;28;8740;-76
2022/06/10 03:31:55;;;;;;;;;26.00;26.00;25.90;59.40;;;;;;5098580;28;8756;-76
2022/06/10 03:34:35;;;;;;;;;29.33;29.33;25.90;59.90;;;;;;5095007;28;8779;-76
2022/06/10 03:37:02;;;;;;;;;30.33;30.33;26.10;59.70;;;;;;5098396;28;8767;-76
2022/06/10 03:39:28;;;;;;;;;25.33;25.00;26.10;59.20;;;;;;5088072;28;8879;-76
2022/06/10 03:41:57;;;;;;;;;28.33;28.33;26.10;58.70;;;;;;5097601;28;8804;-76
2022/06/10 03:44:24;;;;;;;;;23.67;23.67;26.20;58.60;;;;;;5080042;28;8774;-76
2022/06/10 03:46:51;;;;;;;;;28.33;28.33;26.20;58.70;;;;;;5078285;28;8786;-76
2022/06/10 03:49:23;;;;;;;;;28.33;28.33;26.20;58.40;;;;;;5078056;28;8750;-76
2022/06/10 03:51:51;;;;;;;;;29.00;29.00;26.20;58.50;;;;;;5077704;28;8762;-76
2022/06/10 03:54:19;;;;;;;;;29.33;29.33;26.30;58.00;;;;;;5077921;28;8778;-76
2022/06/10 03:56:46;;;;;;;;;28.00;26.33;26.40;58.00;;;;;;5077683;28;8790;-76
2022/06/10 03:59:11;;;;;;;;;27.33;27.33;26.40;58.00;;;;;;5077730;28;8804;-76
2022/06/10 04:01:38;;;;;;;;;24.33;24.33;26.40;57.60;;;;;;5081886;28;8823;-76
2022/06/10 04:04:04;;;;;;;;;29.67;29.67;26.30;57.60;;;;;;5077676;28;8766;-76
2022/06/10 04:06:31;;;;;;;;;32.00;31.33;26.30;57.70;;;;;;5086439;28;8803;-76
2022/06/10 04:08:57;;;;;;;;;28.33;28.33;26.30;57.40;;;;;;5097735;28;8779;-76
2022/06/10 04:11:23;;;;;;;;;30.67;30.67;26.30;57.70;;;;;;5097784;28;8832;-76
2022/06/10 04:13:49;;;;;;;;;29.67;29.67;26.40;57.30;;;;;;5097727;28;8756;-76
2022/06/10 04:16:15;;;;;;;;;32.33;31.33;26.40;57.50;;;;;;5097880;28;8804;-76
2022/06/10 04:18:41;;;;;;;;;28.33;28.33;26.40;57.10;;;;;;5097453;28;8807;-76
2022/06/10 04:21:06;;;;;;;;;30.00;30.00;26.50;57.10;;;;;;5097196;28;9386;-76
2022/06/10 04:23:33;;;;;;;;;34.00;33.00;26.40;57.50;;;;;;5097469;28;8768;-76
2022/06/10 04:25:59;;;;;;;;;29.00;29.00;26.50;57.40;;;;;;5097419;28;9486;-76
2022/06/10 04:28:25;;;;;;;;;29.33;29.33;26.50;57.20;;;;;;5097673;28;8776;-76
2022/06/10 04:30:52;;;;;;;;;29.33;29.33;26.50;57.60;;;;;;5096424;28;8889;-76
2022/06/10 04:33:19;;;;;;;;;30.00;29.00;26.50;57.30;;;;;;5088558;28;8889;-78
2022/06/10 04:35:48;;;;;;;;;30.00;29.33;26.60;57.30;;;;;;5080730;28;8801;-77
2022/06/10 04:38:16;;;;;;;;;29.00;29.00;26.50;57.20;;;;;;5082585;28;8810;-77
2022/06/10 04:40:43;;;;;;;;;28.00;28.00;26.50;57.40;;;;;;5088314;28;8941;-77
2022/06/10 04:43:09;;;;;;;;;31.33;30.33;26.60;57.00;;;;;;5080053;28;8786;-77
2022/06/10 04:45:44;;;;;;;;;27.67;27.67;26.60;57.20;;;;;;5076900;28;9451;-77
2022/06/10 04:48:11;;;;;;;;;31.00;30.33;26.70;56.60;;;;;;5076786;28;8774;-77
2022/06/10 04:50:38;;;;;;;;;34.00;33.00;26.80;55.30;;;;;;5081174;28;8782;-77
2022/06/10 04:53:04;;;;;;;;;30.33;30.33;26.90;55.20;;;;;;5092213;28;8808;-77
2022/06/10 04:55:29;;;;;;;;;35.33;33.33;27.10;55.00;;;;;;5084957;28;8778;-78
2022/06/10 04:57:56;;;;;;;;;32.00;31.33;27.00;54.60;;;;;;5093082;28;8793;-77
2022/06/10 05:00:34;;;;;;;;;29.67;29.67;27.10;54.40;;;;;;5094283;28;8912;-77
2022/06/10 05:03:02;;;;;;;;;33.33;32.33;27.00;53.90;;;;;;5087682;28;8802;-77
2022/06/10 05:05:29;;;;;;;;;30.00;30.00;27.00;54.60;;;;;;5068912;28;8904;-77
2022/06/10 05:07:55;;;;;;;;;31.67;31.33;26.80;54.60;;;;;;5097385;28;8860;-79
2022/06/10 05:10:21;;;;;;;;;27.33;27.33;26.70;54.80;;;;;;5090118;28;8800;-78
2022/06/10 05:12:47;;;;;;;;;36.00;34.00;26.80;54.70;;;;;;5084927;28;8781;-78
2022/06/10 05:15:16;;;;;;;;;35.33;33.00;26.70;54.50;;;;;;5095933;28;8851;-79
2022/06/10 05:17:42;;;;;;;;;33.00;32.00;26.70;55.10;;;;;;5095897;28;8919;-77
2022/06/10 05:20:10;;;;;;;;;35.67;33.67;26.80;54.80;;;;;;5096127;28;8825;-77
2022/06/10 05:22:36;;;;;;;;;32.33;31.33;26.60;55.10;;;;;;5096467;28;8792;-77
2022/06/10 05:25:02;;;;;;;;;40.67;36.00;26.60;55.10;;;;;;5096169;28;8766;-77
2022/06/10 05:27:27;;;;;;;;;36.33;33.67;26.40;55.30;;;;;;5096136;28;8780;-77
2022/06/10 05:29:53;;;;;;;;;34.67;32.33;26.30;56.40;;;;;;5096367;28;8876;-77
2022/06/10 05:32:19;;;;;;;;;34.67;33.33;26.20;56.50;;;;;;5096153;28;8757;-77
2022/06/10 05:34:45;;;;;;;;;38.00;34.33;26.30;56.30;;;;;;5096085;28;8770;-77
2022/06/10 05:37:16;;;;;;;;;39.00;35.67;26.30;56.40;;;;;;5096069;28;8789;-77
2022/06/10 05:39:42;;;;;;;;;40.67;36.67;26.50;55.90;;;;;;5095439;28;8785;-76
2022/06/10 05:42:09;;;;;;;;;44.67;39.33;26.60;55.40;;;;;;5096113;28;8746;-76
2022/06/10 05:44:41;;;;;;;;;41.33;37.00;26.70;55.20;;;;;;5096020;28;9560;-76
2022/06/10 05:47:09;;;;;;;;;44.00;39.00;26.90;54.90;;;;;;5095016;28;8824;-76
2022/06/10 05:49:37;;;;;;;;;39.67;36.00;27.00;54.30;;;;;;5095974;28;8794;-76
2022/06/10 05:52:05;;;;;;;;;40.67;37.00;27.10;54.30;;;;;;5095754;28;8750;-77
2022/06/10 05:54:30;;;;;;;;;38.00;35.00;27.20;54.50;;;;;;5095930;28;8784;-77
2022/06/10 05:56:56;;;;;;;;;38.33;35.33;27.20;54.00;;;;;;5095768;28;8746;-77
2022/06/10 05:59:22;;;;;;;;;42.67;37.67;27.30;53.90;;;;;;5095534;28;8806;-76
2022/06/10 06:01:48;;;;;;;;;42.33;37.67;27.40;53.60;;;;;;5095524;28;8789;-76
2022/06/10 06:04:14;;;;;;;;;41.33;37.00;27.30;54.00;;;;;;5095530;28;8852;-77
2022/06/10 06:06:41;;;;;;;;;39.67;36.33;27.20;54.50;;;;;;5095488;28;8777;-77
2022/06/10 06:09:07;;;;;;;;;40.00;36.00;27.10;54.20;;;;;;5094114;28;8769;-77
2022/06/10 06:11:33;;;;;;;;;35.00;32.67;27.10;55.10;;;;;;5094836;28;8731;-77
2022/06/10 06:13:59;;;;;;;;;35.67;34.00;27.30;54.50;;;;;;5095086;28;8761;-77
2022/06/10 06:16:25;;;;;;;;;37.33;34.33;27.50;53.60;;;;;;5095383;28;8856;-77
2022/06/10 06:18:52;;;;;;;;;34.00;32.33;27.70;52.90;;;;;;5094926;28;8797;-77
2022/06/10 06:21:18;;;;;;;;;33.67;32.33;27.70;52.60;;;;;;5094777;28;9466;-77
2022/06/10 06:23:44;;;;;;;;;42.33;37.67;27.70;52.90;;;;;;5095187;28;8762;-77
2022/06/10 06:26:15;;;;;;;;;34.67;33.33;27.80;52.10;;;;;;5095193;28;8754;-78
2022/06/10 06:28:42;;;;;;;;;37.00;34.00;27.70;52.10;;;;;;5095412;28;8784;-77
2022/06/10 06:31:08;;;;;;;;;32.00;31.00;27.90;52.20;;;;;;5095256;28;8778;-78
2022/06/10 06:33:34;;;;;;;;;39.00;35.67;27.70;51.20;;;;;;5095053;28;8761;-78
2022/06/10 06:36:00;;;;;;;;;34.33;32.33;27.70;52.00;;;;;;5094721;28;8776;-77
2022/06/10 06:38:28;;;;;;;;;33.00;32.00;27.70;52.50;;;;;;5095061;28;8830;-77
2022/06/10 06:40:54;;;;;;;;;34.00;32.67;27.60;51.60;;;;;;5094801;28;8836;-77
2022/06/10 06:43:19;;;;;;;;;33.00;32.00;27.50;52.20;;;;;;5094943;28;8777;-77
2022/06/10 06:45:46;;;;;;;;;28.67;28.67;27.50;51.90;;;;;;5094795;28;8813;-77
2022/06/10 06:48:14;;;;;;;;;35.67;33.33;27.60;51.90;;;;;;5094656;28;8788;-77
2022/06/10 06:50:47;;;;;;;;;36.33;34.00;27.50;52.00;;;;;;5093631;28;8761;-76
2022/06/10 06:53:13;;;;;;;;;33.33;32.33;27.40;53.20;;;;;;5094639;28;9337;-77
2022/06/10 06:55:41;;;;;;;;;35.33;32.67;27.40;53.20;;;;;;5093859;28;8776;-77
2022/06/10 06:58:10;;;;;;;;;32.33;31.33;27.10;53.80;;;;;;5093480;28;8790;-76
2022/06/10 07:00:36;;;;;;;;;36.33;33.67;27.20;53.20;;;;;;5093245;28;8796;-77
2022/06/10 07:03:04;;;;;;;;;36.33;34.33;27.30;52.80;;;;;;5093169;28;8817;-77
2022/06/10 07:05:31;;;;;;;;;33.67;32.00;27.30;52.50;;;;;;5093474;28;9394;-77
2022/06/10 07:07:58;;;;;;;;;35.67;33.67;27.50;52.20;;;;;;5093179;28;8874;-77
2022/06/10 07:10:24;;;;;;;;;33.67;32.33;27.50;52.80;;;;;;5093445;28;8774;-81
2022/06/10 07:12:51;;;;;;;;;34.67;33.33;27.30;52.20;;;;;;5092850;28;8775;-80
2022/06/10 07:15:18;;;;;;;;;31.67;31.33;27.20;53.40;;;;;;5093058;28;8803;-80
2022/06/10 07:17:44;;;;;;;;;33.00;32.00;27.40;52.90;;;;;;5092940;28;9464;-80
2022/06/10 07:20:22;;;;;;;;;36.67;34.33;27.50;52.60;;;;;;5093153;28;9439;-81
2022/06/10 07:22:48;;;;;;;;;28.33;28.33;27.70;52.10;;;;;;5093521;28;8736;-88
2022/06/10 07:25:14;;;;;;;;;32.33;31.33;27.90;52.50;;;;;;5095723;28;8760;-74
2022/06/10 07:27:41;;;;;;;;;35.67;33.33;27.90;51.60;;;;;;5099712;28;8882;-80
2022/06/10 07:30:10;;;;;;;;;28.67;28.67;28.00;51.20;;;;;;5093256;28;8780;-84
2022/06/10 07:32:36;;;;;;;;;30.67;30.33;27.90;50.40;;;;;;5092595;28;8760;-83
2022/06/10 07:35:02;;;;;;;;;29.33;29.33;27.80;50.80;;;;;;5092892;28;8791;-84
2022/06/10 07:37:28;;;;;;;;;29.00;29.00;27.80;51.10;;;;;;5093410;28;8825;-85
2022/06/10 07:39:54;;;;;;;;;27.00;27.00;28.10;50.60;;;;;;5093283;28;9445;-83
2022/06/10 07:42:20;;;;;;;;;26.67;26.67;28.30;50.20;;;;;;5090393;28;8790;-80
2022/06/10 07:44:46;;;;;;;;;31.33;30.33;28.40;49.90;;;;;;5092723;28;8744;-82
2022/06/10 07:47:14;;;;;;;;;30.33;30.00;28.40;49.80;;;;;;5092575;28;8899;-80
2022/06/10 07:49:40;;;;;;;;;26.33;26.33;28.50;49.80;;;;;;5089700;28;8923;-83
2022/06/10 07:52:07;;;;;;;;;28.33;28.33;28.70;49.00;;;;;;5092713;28;8787;-80
2022/06/10 07:54:36;;;;;;;;;27.67;27.67;29.10;48.10;;;;;;5092661;28;8764;-79
2022/06/10 07:57:04;;;;;;;;;27.00;27.00;29.40;47.50;;;;;;5073908;28;8804;-78
2022/06/10 07:59:31;;;;;;;;;29.33;29.33;29.80;46.80;;;;;;5074162;28;8793;-80
2022/06/10 08:01:58;;;;;;;;;28.67;28.67;29.90;45.70;;;;;;5075632;28;8850;-80
2022/06/10 08:04:24;;;;;;;;;29.67;29.67;30.10;45.70;;;;;;5085728;28;8752;-77
2022/06/10 08:06:50;;;;;;;;;35.33;33.33;30.20;44.70;;;;;;5097577;28;8984;-78
2022/06/10 08:09:20;;;;;;;;;38.00;34.33;30.20;44.50;;;;;;5097727;28;8783;-80
2022/06/10 08:11:48;;;;;;;;;31.33;30.67;30.00;44.50;;;;;;5097914;28;8824;-78
2022/06/10 08:14:14;;;;;;;;;32.67;31.67;30.10;44.60;;;;;;5097531;28;8756;-79
2022/06/10 08:16:39;;;;;;;;;35.67;33.33;30.50;44.00;;;;;;5097590;28;8796;-78
2022/06/10 08:19:05;;;;;;;;;28.33;28.33;30.80;44.20;;;;;;5097448;28;8764;-82
2022/06/10 08:24:16;;;;;;;;;24.67;24.67;31.00;41.80;;;;;;5099162;28;8760;-82
2022/06/10 08:26:42;;;;;;;;;21.00;21.00;31.10;41.50;;;;;;5097553;28;9455;-79
2022/06/10 08:29:08;;;;;;;;;25.00;25.00;31.10;41.70;;;;;;5097143;28;8876;-77
2022/06/10 08:31:34;;;;;;;;;24.00;24.00;31.20;41.30;;;;;;5096593;28;9397;-75
2022/06/10 08:34:02;;;;;;;;;23.00;21.67;31.60;41.30;;;;;;5096621;28;8874;-77
2022/06/10 08:36:28;;;;;;;;;22.00;22.00;31.60;40.40;;;;;;5097012;28;12146;-77
2022/06/10 08:38:54;;;;;;;;;17.00;17.00;31.20;40.20;;;;;;5096879;28;11465;-78
2022/06/10 08:42:05;;;;;;;;;21.67;21.67;31.10;40.70;;;;;;5096734;28;11473;-77
2022/06/10 08:44:44;;;;;;;;;21.00;21.00;30.70;41.00;;;;;;5031831;28;8874;-77
2022/06/10 08:47:29;;;;;;;;;20.33;20.33;30.40;41.90;;;;;;5076543;28;8852;-74
2022/06/10 08:50:10;;;;;;;;;19.00;19.00;30.40;41.80;;;;;;5076425;28;8797;-74
2022/06/10 08:52:49;;;;;;;;;19.67;19.67;30.90;41.60;;;;;;5058684;28;8794;-78
2022/06/10 08:55:25;;;;;;;;;21.33;21.33;31.30;41.00;;;;;;5084396;28;11473;-76
2022/06/10 08:57:53;;;;;;;;;22.33;22.33;31.20;40.60;;;;;;5095396;28;11535;-80
2022/06/10 09:00:24;;;;;;;;;22.00;22.00;31.00;42.00;;;;;;5093550;28;8804;-75
2022/06/10 09:03:17;;;;;;;;;26.67;26.67;31.00;41.20;;;;;;5096379;28;8732;-75
2022/06/10 09:06:03;;;;;;;;;24.67;24.67;30.90;41.60;;;;;;5096014;28;8783;-75
2022/06/10 09:08:37;;;;;;;;;27.33;27.33;30.70;41.50;;;;;;5095944;28;8775;-75
2022/06/10 09:11:16;;;;;;;;;24.67;24.67;30.50;41.80;;;;;;5095290;28;8768;-75
2022/06/10 09:14:09;;;;;;;;;24.67;24.67;30.30;42.70;;;;;;5093145;28;8768;-76
2022/06/10 09:16:50;;;;;;;;;26.33;26.33;30.10;43.50;;;;;;5096156;28;8811;-72
2022/06/10 09:19:15;;;;;;;;;26.33;26.33;30.00;43.80;;;;;;5095904;28;8848;-73
2022/06/10 09:22:17;;;;;;;;;26.33;26.33;30.10;43.70;;;;;;5096074;28;8767;-73
2022/06/10 09:25:08;;;;;;;;;26.33;26.33;30.50;43.20;;;;;;5096310;28;8775;-74
2022/06/10 09:27:47;;;;;;;;;27.00;27.00;31.10;42.90;;;;;;5096272;28;9533;-73
2022/06/10 09:30:18;;;;;;;;;26.33;25.33;31.20;42.50;;;;;;5095875;28;8763;-73
2022/06/10 09:32:58;;;;;;;;;27.33;27.33;31.10;42.20;;;;;;5095898;28;8760;-73
2022/06/10 09:35:53;;;;;;;;;25.33;25.33;31.60;42.50;;;;;;5077946;28;8837;-73
2022/06/10 09:38:45;;;;;;;;;29.00;29.00;31.40;40.80;;;;;;5096087;28;9464;-73
2022/06/10 09:41:39;;;;;;;;;29.00;29.00;31.30;41.80;;;;;;5095685;28;8820;-74
2022/06/10 09:44:20;;;;;;;;;32.00;31.00;31.20;42.60;;;;;;5095724;28;8776;-73
2022/06/10 09:47:04;;;;;;;;;31.33;30.33;31.30;42.00;;;;;;5095582;28;9432;-73
2022/06/10 09:49:30;;;;;;;;;17.00;17.00;31.30;42.10;;;;;;5095643;28;8786;-73
2022/06/10 09:52:02;;;;;;;;;27.67;27.67;31.50;42.00;;;;;;5095561;28;8759;-75
2022/06/10 09:55:11;;;;;;;;;27.33;27.33;32.00;42.60;;;;;;5095443;28;8857;-75
2022/06/10 09:57:48;;;;;;;;;28.00;28.00;31.90;40.70;;;;;;5095499;28;8831;-74
2022/06/10 10:00:19;;;;;;;;;28.67;28.67;31.60;41.60;;;;;;5095258;28;8814;-74
2022/06/10 10:03:13;;;;;;;;;29.67;29.67;31.70;40.60;;;;;;5095179;28;8788;-75
2022/06/10 10:06:04;;;;;;;;;30.33;30.33;31.50;40.30;;;;;;5095345;28;8849;-76
2022/06/10 10:08:52;;;;;;;;;23.67;23.67;31.00;41.00;;;;;;5095570;28;9438;-75
2022/06/10 10:11:44;;;;;;;;;29.33;29.33;30.80;41.80;;;;;;5095545;28;8748;-75
2022/06/10 10:14:37;;;;;;;;;29.33;28.67;31.30;41.60;;;;;;5095185;28;8736;-75
2022/06/10 10:17:30;;;;;;;;;27.33;27.33;31.90;40.70;;;;;;5094917;28;8824;-75
2022/06/10 10:20:17;;;;;;;;;25.00;25.00;32.00;40.40;;;;;;5094940;28;8792;-75
2022/06/10 10:22:43;;;;;;;;;25.67;25.67;31.60;40.40;;;;;;5095153;28;9417;-76
2022/06/10 10:25:23;;;;;;;;;22.00;22.00;31.10;41.00;;;;;;5076528;28;11465;-75
2022/06/10 10:27:50;;;;;;;;;27.33;27.33;30.70;42.00;;;;;;5094888;28;8786;-75
2022/06/10 10:30:26;;;;;;;;;26.33;26.33;30.60;42.40;;;;;;5094779;28;9410;-75
2022/06/10 10:33:00;;;;;;;;;25.33;25.33;30.40;42.50;;;;;;5094199;28;8748;-76
2022/06/10 10:35:37;;;;;;;;;28.00;28.00;30.30;43.20;;;;;;5094743;28;8748;-75
2022/06/10 10:38:08;;;;;;;;;23.00;23.00;30.40;43.80;;;;;;5076658;28;8784;-75
2022/06/10 10:40:45;;;;;;;;;24.67;24.67;30.60;43.30;;;;;;5094699;28;9394;-75
2022/06/10 10:43:24;;;;;;;;;24.67;24.67;31.20;43.80;;;;;;5094792;28;8763;-75
2022/06/10 10:46:03;;;;;;;;;25.33;25.33;32.10;41.20;;;;;;5094591;28;8826;-75
2022/06/10 10:48:37;;;;;;;;;24.00;24.00;32.60;39.90;;;;;;5094686;28;11484;-75
2022/06/10 10:51:12;;;;;;;;;23.67;23.67;32.50;38.80;;;;;;5094673;28;11427;-75
2022/06/10 10:53:52;;;;;;;;;28.67;28.67;32.00;39.00;;;;;;5094543;28;8748;-75
2022/06/10 10:56:18;;;;;;;;;19.00;19.00;32.00;39.10;;;;;;5094651;28;8879;-76
2022/06/10 10:58:51;;;;;;;;;17.00;17.00;32.20;39.90;;;;;;5094612;28;11461;-75
2022/06/10 11:01:46;;;;;;;;;24.67;24.67;31.60;40.90;;;;;;5094277;28;8815;-75
2022/06/10 11:04:19;;;;;;;;;27.33;27.33;31.90;40.00;;;;;;5094363;28;11500;-76
2022/06/10 11:06:45;;;;;;;;;26.33;26.33;31.80;39.70;;;;;;5094379;28;9609;-74
2022/06/10 11:09:23;;;;;;;;;25.00;25.00;31.70;39.80;;;;;;5094554;28;9453;-76
2022/06/10 11:11:50;;;;;;;;;26.33;26.33;31.50;40.60;;;;;;5094395;28;8758;-73
2022/06/10 11:14:35;;;;;;;;;34.00;32.00;30.70;42.90;;;;;;5094199;28;8801;-74
2022/06/10 11:17:11;;;;;;;;;36.00;33.33;30.60;42.60;;;;;;5093904;28;8951;-74
2022/06/10 11:19:40;;;;;;;;;27.00;27.00;30.20;42.00;;;;;;5094071;28;8812;-74
2022/06/10 11:22:35;;;;;;;;;23.33;23.33;29.90;43.00;;;;;;5094035;28;8993;-73
2022/06/10 11:25:02;;;;;;;;;24.00;24.00;30.80;42.40;;;;;;5094058;28;8836;-75
2022/06/10 11:27:37;;;;;;;;;24.33;24.33;31.80;42.20;;;;;;5094076;28;8740;-75
2022/06/10 11:30:13;;;;;;;;;25.33;25.33;32.60;39.10;;;;;;5094247;28;11426;-75
2022/06/10 11:33:03;;;;;;;;;29.00;29.00;32.40;38.40;;;;;;5094193;28;11402;-74
2022/06/10 11:35:37;;;;;;;;;27.33;27.33;31.90;40.20;;;;;;5093995;28;8744;-74
2022/06/10 11:38:09;;;;;;;;;28.00;28.00;31.60;41.40;;;;;;5097818;28;8810;-74
2022/06/10 11:40:46;;;;;;;;;27.33;27.33;31.40;42.70;;;;;;5098243;28;9428;-73
2022/06/10 11:43:25;;;;;;;;;31.33;30.33;30.80;44.40;;;;;;5097966;28;9444;-78
2022/06/10 11:45:57;;;;;;;;;30.67;30.33;30.40;47.20;;;;;;5098191;28;9458;-75
2022/06/10 11:48:39;;;;;;;;;32.67;31.67;30.30;47.80;;;;;;5087115;28;8772;-75
2022/06/10 11:51:26;;;;;;;;;35.33;33.00;30.10;49.20;;;;;;5084958;28;8841;-74
2022/06/10 11:54:17;;;;;;;;;21.33;21.33;30.30;50.20;;;;;;5095272;28;8973;-75
2022/06/10 12:00:30;;;;;;;;;33.00;32.00;30.20;49.40;;;;;;5088935;28;11488;-76
2022/06/10 12:03:11;;;;;;;;;35.00;33.00;30.00;49.90;;;;;;5079304;28;8777;-75
2022/06/10 12:05:58;;;;;;;;;38.00;34.67;29.90;51.70;;;;;;5097576;28;8784;-75
2022/06/10 12:08:45;;;;;;;;;35.00;33.00;29.40;53.10;;;;;;5097934;28;8765;-75
2022/06/10 12:11:24;;;;;;;;;50.00;43.00;29.00;54.60;;;;;;5097613;28;8778;-73
2022/06/10 12:14:17;;;;;;;;;56.33;47.00;28.20;56.20;;;;;;5097443;28;8781;-74
2022/06/10 12:16:48;;;;;;;;;33.67;32.33;28.00;56.50;;;;;;5095748;28;8902;-72
2022/06/10 12:19:20;;;;;;;;;34.33;32.33;27.60;55.10;;;;;;5097782;28;8781;-72
2022/06/10 12:21:46;;;;;;;;;42.67;37.00;27.50;55.40;;;;;;5097331;28;8766;-74
2022/06/10 12:24:19;;;;;;;;;46.33;39.67;27.50;56.90;;;;;;5096134;28;8761;-74
2022/06/10 12:27:00;;;;;;;;;47.33;40.33;27.90;56.60;;;;;;5097371;28;8848;-74
2022/06/10 12:29:50;;;;;;;;;43.00;37.67;28.10;55.60;;;;;;5097533;28;8777;-74
2022/06/10 12:32:34;;;;;;;;;45.67;39.33;28.40;55.00;;;;;;5097069;28;8750;-73
2022/06/10 12:35:08;;;;;;;;;41.33;36.33;28.40;54.80;;;;;;5097208;28;8753;-74
2022/06/10 12:37:55;;;;;;;;;38.00;34.67;28.20;55.80;;;;;;5097361;28;8848;-74
2022/06/10 12:40:30;;;;;;;;;43.67;38.00;28.10;56.40;;;;;;5097105;28;8836;-74
2022/06/10 12:43:10;;;;;;;;;37.67;33.67;27.90;57.60;;;;;;5097060;28;8892;-73
2022/06/10 12:45:58;;;;;;;;;33.00;32.00;27.90;58.20;;;;;;5096866;28;8905;-73
2022/06/10 12:48:33;;;;;;;;;25.67;25.67;28.50;55.90;;;;;;5096856;28;9527;-73
2022/06/10 12:51:13;;;;;;;;;28.00;28.00;29.00;54.80;;;;;;5096440;28;8750;-73
2022/06/10 12:54:00;;;;;;;;;21.33;21.33;30.00;52.30;;;;;;5096455;28;8782;-74
2022/06/10 12:56:32;;;;;;;;;21.00;21.00;30.10;49.40;;;;;;5096612;28;12232;-72
2022/06/10 12:59:04;;;;;;;;;18.00;18.00;29.90;48.80;;;;;;5091926;28;11459;-73
2022/06/10 13:01:30;;;;;;;;;17.00;17.00;29.70;49.20;;;;;;5085041;28;11534;-73
2022/06/10 13:04:25;;;;;;;;;22.33;22.33;29.20;50.80;;;;;;5075810;28;11539;-73
2022/06/10 13:07:00;;;;;;;;;22.00;22.00;28.90;51.50;;;;;;5076751;28;9423;-73
2022/06/10 13:09:34;;;;;;;;;27.33;27.33;28.80;52.40;;;;;;5091808;28;8883;-73
2022/06/10 13:12:06;;;;;;;;;27.33;27.33;29.10;52.00;;;;;;5096063;28;8775;-73
2022/06/10 13:14:36;;;;;;;;;24.33;24.33;29.30;52.10;;;;;;5096223;28;9656;-74
2022/06/10 13:17:20;;;;;;;;;22.33;22.33;29.40;52.00;;;;;;5096158;28;8837;-74
2022/06/10 13:19:51;;;;;;;;;19.33;19.33;29.40;52.00;;;;;;5090795;28;11566;-74